createdAt,value
2023-04-08T00:02:41.767Z,60.04
2023-04-08T00:12:43.966Z,59.58
2023-04-08T00:22:46.709Z,60.54
2023-04-08T00:32:48.812Z,58.85
2023-04-08T00:42:51.207Z,62.38
2023-04-08T00:52:53.289Z,63.18
2023-04-08T01:03:07.402Z,61.02
2023-04-08T01:13:12.454Z,63.67
2023-04-08T01:23:24.826Z,61.34
2023-04-08T01:33:28.002Z,66.11
2023-04-08T01:43:32.220Z,61.61
2023-04-08T01:53:34.346Z,64.48
2023-04-08T02:03:37.172Z,63.53
2023-04-08T02:13:39.765Z,63.07
2023-04-08T02:23:42.620Z,63.70
2023-04-08T02:33:44.794Z,65.88
2023-04-08T02:43:47.986Z,64.72
2023-04-08T02:53:50.208Z,65.60
2023-04-08T03:03:52.632Z,63.64
2023-04-08T03:13:54.747Z,65.33
2023-04-08T03:23:56.787Z,63.98
2023-04-08T03:33:59.072Z,64.41
2023-04-08T03:44:01.151Z,65.73
2023-04-08T03:54:03.324Z,63.91
2023-04-08T04:04:05.678Z,64.40
2023-04-08T04:14:07.892Z,63.43
2023-04-08T04:24:09.942Z,64.55
2023-04-08T04:34:12.006Z,65.03
2023-04-08T04:44:14.062Z,63.11
2023-04-08T04:54:16.108Z,62.61
2023-04-08T05:04:18.200Z,62.73
2023-04-08T05:14:20.248Z,62.09
2023-04-08T05:24:22.524Z,62.55
2023-04-08T05:34:24.775Z,61.30
2023-04-08T05:44:27.002Z,62.42
2023-04-08T05:54:29.542Z,61.61
2023-04-08T06:04:32.027Z,63.36
2023-04-08T06:14:34.156Z,62.20
2023-04-08T06:24:36.262Z,62.71
2023-04-08T06:34:38.485Z,64.31
2023-04-08T06:44:40.615Z,61.48
2023-04-08T06:54:43.239Z,60.91
2023-04-08T07:04:46.847Z,61.75
2023-04-08T07:14:49.241Z,61.17
2023-04-08T07:24:51.979Z,61.00
2023-04-08T07:34:54.145Z,59.51
2023-04-08T07:44:56.282Z,59.70
2023-04-08T07:54:58.460Z,58.90
2023-04-08T08:05:01.608Z,58.00
2023-04-08T08:15:04.214Z,60.01
2023-04-08T08:25:07.756Z,56.96
2023-04-08T08:35:09.908Z,56.35
2023-04-08T08:45:12.046Z,54.70
2023-04-08T08:55:32.526Z,55.30
2023-04-08T09:05:50.469Z,56.53
2023-04-08T09:16:06.414Z,57.61
2023-04-08T09:26:22.465Z,55.39
2023-04-08T09:36:27.724Z,54.59
2023-04-08T09:46:48.843Z,54.82
2023-04-08T09:57:03.578Z,53.19
2023-04-08T10:07:07.571Z,53.53
2023-04-08T10:17:25.204Z,53.59
2023-04-08T10:27:40.986Z,55.85
2023-04-08T10:37:44.070Z,52.77
2023-04-08T10:47:46.365Z,50.89
2023-04-08T10:57:49.072Z,52.94
2023-04-08T11:07:52.506Z,52.45
2023-04-08T11:17:55.124Z,54.62
2023-04-08T11:27:57.399Z,53.78
2023-04-08T11:37:59.636Z,51.59
2023-04-08T11:48:09.161Z,51.26
2023-04-08T11:58:11.417Z,51.70
2023-04-08T12:08:13.504Z,51.85
2023-04-08T12:18:16.480Z,52.46
2023-04-08T12:28:18.602Z,50.43
2023-04-08T12:38:20.993Z,51.56
2023-04-08T12:48:23.099Z,50.41
2023-04-08T12:58:25.722Z,50.54
2023-04-08T13:08:27.967Z,48.61
2023-04-08T13:18:30.219Z,49.93
2023-04-08T13:28:32.289Z,49.64
2023-04-08T13:38:34.645Z,49.98
2023-04-08T13:48:36.751Z,50.90
2023-04-08T13:58:38.826Z,51.44
2023-04-08T14:08:41.465Z,52.46
2023-04-08T14:18:43.868Z,49.25
2023-04-08T14:28:47.640Z,51.28
2023-04-08T14:38:50.993Z,49.69
2023-04-08T14:48:53.536Z,50.88
2023-04-08T14:58:56.028Z,49.73
2023-04-08T15:08:58.474Z,49.78
2023-04-08T15:19:00.714Z,49.69
2023-04-08T15:29:04.261Z,49.25
2023-04-08T15:39:06.465Z,50.59
2023-04-08T15:49:08.751Z,50.45
2023-04-08T15:59:11.283Z,51.19
2023-04-08T16:09:13.436Z,48.87
2023-04-08T16:19:15.468Z,50.35
2023-04-08T16:29:17.573Z,51.02
2023-04-08T16:39:20.063Z,50.47
2023-04-08T16:49:22.716Z,51.35
2023-04-08T16:59:24.999Z,52.44
2023-04-08T17:09:31.382Z,54.40
2023-04-08T17:19:33.832Z,52.16
2023-04-08T17:29:35.988Z,54.45
2023-04-08T17:39:40.617Z,54.12
2023-04-08T17:49:43.009Z,53.72
2023-04-08T17:59:45.420Z,53.98
2023-04-08T18:09:49.021Z,52.90
2023-04-08T18:19:51.156Z,53.75
2023-04-08T18:29:53.462Z,54.44
2023-04-08T18:39:55.816Z,54.77
2023-04-08T18:49:58.642Z,54.60
2023-04-08T19:00:01.072Z,54.65
2023-04-08T19:10:03.349Z,52.87
2023-04-08T19:20:06.072Z,54.54
2023-04-08T19:30:08.854Z,53.81
2023-04-08T19:40:13.664Z,55.33
2023-04-08T19:50:15.730Z,54.42
2023-04-08T20:00:17.885Z,53.63
2023-04-08T20:10:20.719Z,54.51
2023-04-08T20:20:26.317Z,54.19
2023-04-08T20:30:29.868Z,53.29
2023-04-08T20:40:32.065Z,55.50
2023-04-08T20:50:34.640Z,55.80
2023-04-08T21:00:36.764Z,53.79
2023-04-08T21:10:38.966Z,53.16
2023-04-08T21:20:41.099Z,54.79
2023-04-08T21:30:43.234Z,54.54
2023-04-08T21:40:45.356Z,55.12
2023-04-08T21:50:47.565Z,55.75
2023-04-08T22:00:50.745Z,56.08
2023-04-08T22:10:53.107Z,55.88
2023-04-08T22:20:55.485Z,57.12
2023-04-08T22:30:57.563Z,56.73
2023-04-08T22:40:59.687Z,58.17
2023-04-08T22:51:01.977Z,57.86
2023-04-08T23:01:24.336Z,58.16
2023-04-08T23:11:27.135Z,57.86
2023-04-08T23:21:29.503Z,59.22
2023-04-08T23:31:31.714Z,58.82
2023-04-08T23:41:33.804Z,59.08
2023-04-08T23:51:36.267Z,57.78
